createdAt,value
2023-04-27T00:00:46.431Z,3.90
2023-04-27T00:03:14.823Z,3.75
2023-04-27T00:05:44.324Z,3.72
2023-04-27T00:08:12.651Z,3.15
2023-04-27T00:10:40.947Z,5.35
2023-04-27T00:13:09.770Z,3.63
2023-04-27T00:15:39.754Z,4.32
2023-04-27T00:18:08.170Z,3.47
2023-04-27T00:20:36.514Z,4.18
2023-04-27T00:23:05.163Z,4.10
2023-04-27T00:25:33.490Z,3.90
2023-04-27T00:28:01.685Z,4.03
2023-04-27T00:30:29.897Z,4.53
2023-04-27T00:32:59.563Z,3.42
2023-04-27T00:35:27.835Z,3.60
2023-04-27T00:37:56.018Z,4.00
2023-04-27T00:40:24.288Z,2.80
2023-04-27T00:42:52.496Z,3.47
2023-04-27T00:45:20.820Z,4.10
2023-04-27T00:47:49.111Z,4.20
2023-04-27T00:50:25.474Z,3.63
2023-04-27T00:52:53.652Z,3.70
2023-04-27T00:55:22.075Z,3.33
2023-04-27T00:57:50.285Z,3.45
2023-04-27T01:00:18.628Z,4.35
2023-04-27T01:02:49.242Z,4.07
2023-04-27T01:05:21.051Z,4.20
2023-04-27T01:07:49.333Z,3.67
2023-04-27T01:10:17.515Z,3.65
2023-04-27T01:12:45.989Z,3.60
2023-04-27T01:15:14.422Z,4.13
2023-04-27T01:17:43.216Z,3.50
2023-04-27T01:20:12.628Z,3.83
2023-04-27T01:22:43.020Z,4.40
2023-04-27T01:25:13.058Z,3.65
2023-04-27T01:27:41.259Z,4.32
2023-04-27T01:30:09.849Z,3.50
2023-04-27T01:32:39.001Z,4.53
2023-04-27T01:35:08.089Z,3.50
2023-04-27T01:37:36.984Z,3.50
2023-04-27T01:40:06.720Z,4.50
2023-04-27T01:42:36.529Z,3.85
2023-04-27T01:45:05.341Z,4.18
2023-04-27T01:47:33.677Z,4.57
2023-04-27T01:50:01.981Z,3.83
2023-04-27T01:52:30.184Z,4.65
2023-04-27T01:54:58.521Z,3.50
2023-04-27T01:57:26.885Z,4.32
2023-04-27T01:59:58.175Z,4.00
2023-04-27T02:02:26.722Z,3.75
2023-04-27T02:04:55.146Z,3.70
2023-04-27T02:07:23.442Z,4.82
2023-04-27T02:09:51.685Z,3.55
2023-04-27T02:12:19.840Z,3.58
2023-04-27T02:14:48.115Z,4.75
2023-04-27T02:17:17.656Z,3.65
2023-04-27T02:19:47.271Z,4.18
2023-04-27T02:22:16.281Z,3.58
2023-04-27T02:24:44.523Z,4.30
2023-04-27T02:27:12.956Z,3.85
2023-04-27T02:29:41.952Z,4.95
2023-04-27T02:32:10.458Z,3.80
2023-04-27T02:34:41.588Z,4.00
2023-04-27T02:37:09.844Z,3.60
2023-04-27T02:39:38.124Z,4.43
2023-04-27T02:42:07.754Z,3.72
2023-04-27T02:44:37.113Z,3.45
2023-04-27T02:47:05.545Z,4.70
2023-04-27T02:49:34.375Z,4.25
2023-04-27T02:52:05.314Z,3.70
2023-04-27T02:54:34.185Z,4.13
2023-04-27T02:57:02.552Z,3.65
2023-04-27T02:59:30.923Z,4.20
2023-04-27T03:01:59.308Z,4.15
2023-04-27T03:04:28.212Z,4.70
2023-04-27T03:06:56.787Z,3.65
2023-04-27T03:09:26.849Z,3.90
2023-04-27T03:11:55.123Z,4.22
2023-04-27T03:14:24.112Z,4.30
2023-04-27T03:16:53.441Z,4.03
2023-04-27T03:19:21.758Z,4.30
2023-04-27T03:21:51.654Z,5.65
2023-04-27T03:24:19.876Z,4.80
2023-04-27T03:26:49.409Z,4.40
2023-04-27T03:29:17.646Z,4.63
2023-04-27T03:31:45.849Z,4.78
2023-04-27T03:34:14.106Z,4.15
2023-04-27T03:36:42.480Z,6.30
2023-04-27T03:39:12.005Z,5.53
2023-04-27T03:41:40.508Z,5.90
2023-04-27T03:44:10.255Z,4.38
2023-04-27T03:46:38.363Z,6.65
2023-04-27T03:49:06.842Z,4.82
2023-04-27T03:51:35.198Z,5.63
2023-04-27T03:54:03.749Z,5.93
2023-04-27T03:56:32.425Z,4.80
2023-04-27T03:59:00.898Z,5.72
2023-04-27T04:01:40.098Z,5.47
2023-04-27T04:04:08.647Z,4.90
2023-04-27T04:06:37.458Z,4.47
2023-04-27T04:09:05.866Z,4.45
2023-04-27T04:11:34.350Z,5.60
2023-04-27T04:14:06.266Z,4.75
2023-04-27T04:16:35.064Z,5.50
2023-04-27T04:19:04.684Z,6.40
2023-04-27T04:21:33.153Z,5.80
2023-04-27T04:24:01.588Z,4.78
2023-04-27T04:26:30.805Z,5.30
2023-04-27T04:28:59.021Z,4.97
2023-04-27T04:31:27.716Z,4.82
2023-04-27T04:33:56.033Z,5.43
2023-04-27T04:36:25.747Z,5.15
2023-04-27T04:38:57.313Z,4.70
2023-04-27T04:41:26.725Z,4.45
2023-04-27T04:43:54.980Z,4.78
2023-04-27T04:46:24.757Z,4.28
2023-04-27T04:48:54.839Z,6.20
2023-04-27T04:51:23.389Z,4.22
2023-04-27T04:53:52.969Z,5.38
2023-04-27T04:56:21.335Z,4.70
2023-04-27T04:58:49.650Z,6.55
2023-04-27T05:01:18.079Z,5.85
2023-04-27T05:03:46.589Z,4.97
2023-04-27T05:06:14.860Z,5.07
2023-04-27T05:08:43.082Z,4.93
2023-04-27T05:11:12.725Z,4.85
2023-04-27T05:13:41.257Z,5.15
2023-04-27T05:16:10.050Z,4.95
2023-04-27T05:18:38.431Z,4.90
2023-04-27T05:21:07.046Z,5.55
2023-04-27T05:23:35.292Z,4.93
2023-04-27T05:26:11.937Z,5.10
2023-04-27T05:28:41.700Z,5.45
2023-04-27T05:31:10.038Z,5.45
2023-04-27T05:33:38.544Z,4.93
2023-04-27T05:36:07.294Z,5.47
2023-04-27T05:38:37.462Z,6.00
2023-04-27T05:41:05.715Z,5.72
2023-04-27T05:43:35.227Z,6.22
2023-04-27T05:46:04.918Z,5.05
2023-04-27T05:48:33.333Z,5.13
2023-04-27T05:51:02.764Z,5.97
2023-04-27T05:53:31.503Z,5.32
2023-04-27T05:56:01.150Z,6.18
2023-04-27T05:58:29.329Z,7.07
2023-04-27T06:00:57.784Z,5.53
2023-04-27T06:03:27.629Z,5.25
2023-04-27T06:05:58.753Z,5.45
2023-04-27T06:08:27.498Z,6.38
2023-04-27T06:10:55.839Z,5.60
2023-04-27T06:13:24.126Z,5.10
2023-04-27T06:15:52.329Z,5.75
2023-04-27T06:18:20.521Z,5.65
2023-04-27T06:20:50.541Z,6.18
2023-04-27T06:23:18.793Z,5.50
2023-04-27T06:25:47.168Z,4.97
2023-04-27T06:28:15.354Z,5.47
2023-04-27T06:30:43.507Z,6.10
2023-04-27T06:33:11.812Z,5.82
2023-04-27T06:35:40.068Z,5.50
2023-04-27T06:38:09.708Z,5.28
2023-04-27T06:40:38.187Z,5.70
2023-04-27T06:43:06.787Z,5.50
2023-04-27T06:45:34.956Z,5.90
2023-04-27T06:48:03.279Z,5.50
2023-04-27T06:50:31.749Z,5.28
2023-04-27T06:52:59.932Z,6.15
2023-04-27T06:55:29.559Z,5.15
2023-04-27T06:57:57.820Z,4.05
2023-04-27T07:00:27.215Z,4.63
2023-04-27T07:02:55.652Z,4.90
2023-04-27T07:05:24.039Z,4.97
2023-04-27T07:07:52.260Z,5.57
2023-04-27T07:10:21.191Z,4.78
2023-04-27T07:12:50.974Z,4.35
2023-04-27T07:15:19.184Z,5.22
2023-04-27T07:17:47.401Z,5.15
2023-04-27T07:20:16.821Z,4.63
2023-04-27T07:22:45.151Z,5.50
2023-04-27T07:25:13.656Z,5.78
2023-04-27T07:27:41.897Z,4.70
2023-04-27T07:30:14.155Z,4.80
2023-04-27T07:32:42.901Z,5.22
2023-04-27T07:35:11.812Z,5.20
2023-04-27T07:37:41.695Z,4.65
2023-04-27T07:40:16.523Z,6.45
2023-04-27T07:42:46.337Z,5.25
2023-04-27T07:45:18.094Z,4.50
2023-04-27T07:47:46.719Z,5.18
2023-04-27T07:50:16.349Z,4.90
2023-04-27T07:52:44.671Z,4.70
2023-04-27T07:55:13.039Z,5.10
2023-04-27T07:57:41.370Z,4.50
2023-04-27T08:00:11.480Z,3.73
2023-04-27T08:02:44.067Z,4.80
2023-04-27T08:05:13.014Z,4.57
2023-04-27T08:07:44.402Z,3.80
2023-04-27T08:10:13.332Z,4.43
2023-04-27T08:12:41.786Z,5.77
2023-04-27T08:15:11.341Z,4.37
2023-04-27T08:17:41.171Z,3.80
2023-04-27T08:20:12.583Z,4.30
2023-04-27T08:22:41.390Z,4.37
2023-04-27T08:25:10.488Z,4.13
2023-04-27T08:27:39.193Z,4.60
2023-04-27T08:30:08.677Z,4.67
2023-04-27T08:32:36.870Z,4.30
2023-04-27T08:35:05.536Z,4.20
2023-04-27T08:37:35.232Z,4.13
2023-04-27T08:40:07.124Z,4.20
2023-04-27T08:42:35.481Z,4.13
2023-04-27T08:45:04.541Z,4.87
2023-04-27T08:47:42.776Z,4.60
2023-04-27T08:50:12.698Z,4.70
2023-04-27T08:52:45.791Z,4.67
2023-04-27T08:55:16.554Z,4.20
2023-04-27T08:57:56.238Z,3.60
2023-04-27T09:00:26.389Z,4.33
2023-04-27T09:02:55.266Z,3.80
2023-04-27T09:05:24.539Z,3.70
2023-04-27T09:08:02.311Z,3.87
2023-04-27T09:10:30.889Z,4.40
2023-04-27T09:13:02.541Z,4.43
2023-04-27T09:15:30.796Z,3.60
2023-04-27T09:17:59.592Z,4.60
2023-04-27T09:20:28.803Z,3.57
2023-04-27T09:22:58.531Z,4.20
2023-04-27T09:25:31.372Z,4.17
2023-04-27T09:28:01.904Z,3.70
2023-04-27T09:30:31.056Z,3.47
2023-04-27T09:33:01.648Z,3.80
2023-04-27T09:35:31.500Z,3.60
2023-04-27T09:38:00.939Z,4.57
2023-04-27T09:40:31.957Z,3.30
2023-04-27T09:43:02.833Z,4.53
2023-04-27T09:45:31.587Z,4.80
2023-04-27T09:48:02.123Z,4.07
2023-04-27T09:50:30.541Z,3.57
2023-04-27T09:52:58.994Z,3.70
2023-04-27T09:55:33.529Z,4.10
2023-04-27T09:58:14.852Z,4.20
2023-04-27T10:00:56.737Z,4.27
2023-04-27T10:03:33.558Z,3.80
2023-04-27T10:06:40.181Z,4.00
2023-04-27T10:09:08.947Z,3.30
2023-04-27T10:11:44.159Z,3.83
2023-04-27T10:14:23.139Z,3.73
2023-04-27T10:16:53.405Z,3.90
2023-04-27T10:19:22.501Z,3.30
2023-04-27T10:21:56.930Z,4.80
2023-04-27T10:24:38.340Z,4.10
2023-04-27T10:27:09.692Z,4.00
2023-04-27T10:29:39.909Z,3.30
2023-04-27T10:32:09.526Z,3.70
2023-04-27T10:34:39.547Z,3.87
2023-04-27T10:37:09.431Z,3.10
2023-04-27T10:39:47.753Z,3.43
2023-04-27T10:42:28.455Z,3.93
2023-04-27T10:44:58.674Z,3.73
2023-04-27T10:47:38.163Z,3.50
2023-04-27T10:50:08.826Z,3.77
2023-04-27T10:52:37.094Z,3.60
2023-04-27T10:55:16.468Z,3.30
2023-04-27T10:57:51.081Z,2.93
2023-04-27T11:00:25.290Z,3.80
2023-04-27T11:02:54.797Z,3.20
2023-04-27T11:05:24.945Z,3.57
2023-04-27T11:07:53.406Z,3.50
2023-04-27T11:10:22.431Z,4.20
2023-04-27T11:12:52.097Z,3.70
2023-04-27T11:15:20.504Z,3.50
2023-04-27T11:17:49.251Z,3.20
2023-04-27T11:20:26.217Z,3.87
2023-04-27T11:22:54.687Z,3.67
2023-04-27T11:25:29.746Z,3.53
2023-04-27T11:27:59.903Z,4.10
2023-04-27T11:30:28.178Z,3.03
2023-04-27T11:32:56.404Z,4.03
2023-04-27T11:35:35.328Z,4.10
2023-04-27T11:38:03.802Z,3.90
2023-04-27T11:40:34.524Z,4.47
2023-04-27T11:43:04.578Z,4.40
2023-04-27T11:45:33.108Z,4.30
2023-04-27T11:48:03.916Z,3.90
2023-04-27T11:50:32.241Z,4.50
2023-04-27T11:53:01.986Z,3.90
2023-04-27T11:55:30.687Z,4.10
2023-04-27T11:57:59.994Z,4.70
2023-04-27T12:00:29.625Z,4.83
2023-04-27T12:02:59.411Z,4.20
2023-04-27T12:05:28.129Z,3.87
2023-04-27T12:07:56.583Z,3.90
2023-04-27T12:10:25.616Z,4.23
2023-04-27T12:12:53.922Z,4.03
2023-04-27T12:15:22.018Z,3.10
2023-04-27T12:17:51.678Z,3.50
2023-04-27T12:20:19.931Z,4.73
2023-04-27T12:22:48.471Z,3.70
2023-04-27T12:25:17.612Z,3.60
2023-04-27T12:27:48.014Z,4.20
2023-04-27T12:30:16.376Z,5.00
2023-04-27T12:32:44.693Z,4.00
2023-04-27T12:35:14.457Z,4.20
2023-04-27T12:37:42.767Z,4.87
2023-04-27T12:40:11.886Z,3.77
2023-04-27T12:42:40.184Z,4.00
2023-04-27T12:45:09.427Z,3.60
2023-04-27T12:47:58.177Z,3.70
2023-04-27T12:50:27.304Z,4.70
2023-04-27T12:52:55.535Z,5.33
2023-04-27T12:55:33.135Z,4.00
2023-04-27T12:58:04.897Z,4.77
2023-04-27T13:00:34.362Z,3.67
2023-04-27T13:03:02.817Z,3.70
2023-04-27T13:05:32.836Z,3.47
2023-04-27T13:08:01.170Z,3.97
2023-04-27T13:10:29.946Z,4.13
2023-04-27T13:12:59.630Z,3.80
2023-04-27T13:15:28.562Z,3.50
2023-04-27T13:17:59.042Z,3.57
2023-04-27T13:20:27.426Z,3.40
2023-04-27T13:22:57.012Z,4.10
2023-04-27T13:25:25.124Z,3.87
2023-04-27T13:27:53.999Z,3.83
2023-04-27T13:30:22.694Z,3.07
2023-04-27T13:32:50.977Z,3.67
2023-04-27T13:35:19.354Z,5.33
2023-04-27T13:37:48.118Z,5.30
2023-04-27T13:40:18.072Z,3.70
2023-04-27T13:42:46.311Z,3.70
2023-04-27T13:45:14.726Z,3.20
2023-04-27T13:47:43.112Z,3.80
2023-04-27T13:50:12.458Z,4.10
2023-04-27T13:52:40.957Z,3.77
2023-04-27T13:55:11.695Z,3.60
2023-04-27T13:57:41.361Z,3.83
2023-04-27T14:00:11.628Z,3.77
2023-04-27T14:02:40.640Z,4.30
2023-04-27T14:05:09.497Z,3.90
2023-04-27T14:07:37.925Z,8.50
2023-04-27T14:10:07.305Z,4.07
2023-04-27T14:12:35.930Z,4.23
2023-04-27T14:15:06.281Z,4.17
2023-04-27T14:17:34.628Z,4.67
2023-04-27T14:20:02.924Z,4.30
2023-04-27T14:22:31.528Z,3.70
2023-04-27T14:24:59.669Z,3.10
2023-04-27T14:27:27.933Z,3.90
2023-04-27T14:29:56.153Z,3.83
2023-04-27T14:32:26.429Z,5.07
2023-04-27T14:34:54.729Z,3.73
2023-04-27T14:37:24.060Z,3.63
2023-04-27T14:39:52.302Z,4.50
2023-04-27T14:42:20.533Z,4.73
2023-04-27T14:44:49.797Z,4.13
2023-04-27T14:47:18.756Z,4.80
2023-04-27T14:49:48.477Z,4.37
2023-04-27T14:52:16.806Z,4.43
2023-04-27T14:54:45.175Z,4.10
2023-04-27T14:57:13.459Z,3.67
2023-04-27T14:59:41.692Z,4.60
2023-04-27T15:02:09.869Z,4.03
2023-04-27T15:04:39.681Z,4.27
2023-04-27T15:07:09.791Z,5.30
2023-04-27T15:09:38.012Z,4.00
2023-04-27T15:12:08.072Z,3.70
2023-04-27T15:14:36.420Z,4.57
2023-04-27T15:17:04.584Z,4.47
2023-04-27T15:19:32.884Z,4.80
2023-04-27T15:22:01.076Z,4.17
2023-04-27T15:24:30.739Z,5.07
2023-04-27T15:26:59.565Z,4.83
2023-04-27T15:29:27.772Z,4.77
2023-04-27T15:31:56.306Z,4.67
2023-04-27T15:34:24.517Z,4.30
2023-04-27T15:36:52.927Z,5.70
2023-04-27T15:39:21.140Z,4.60
2023-04-27T15:41:50.814Z,5.10
2023-04-27T15:44:19.011Z,5.18
2023-04-27T15:46:47.396Z,4.95
2023-04-27T15:49:16.333Z,4.55
2023-04-27T15:51:44.828Z,5.15
2023-04-27T15:54:13.178Z,4.60
2023-04-27T15:56:41.509Z,5.75
2023-04-27T15:59:12.216Z,5.25
2023-04-27T16:01:40.683Z,5.97
2023-04-27T16:04:09.246Z,4.95
2023-04-27T16:06:37.639Z,4.53
2023-04-27T16:09:08.338Z,5.57
2023-04-27T16:11:38.095Z,4.55
2023-04-27T16:14:06.536Z,5.10
2023-04-27T16:16:36.366Z,6.15
2023-04-27T16:19:04.808Z,5.45
2023-04-27T16:21:34.059Z,4.90
2023-04-27T16:24:02.304Z,6.57
2023-04-27T16:26:30.630Z,5.43
2023-04-27T16:28:58.852Z,4.90
2023-04-27T16:31:27.126Z,5.80
2023-04-27T16:33:56.787Z,5.22
2023-04-27T16:36:24.913Z,5.15
2023-04-27T16:38:53.232Z,5.32
2023-04-27T16:41:22.094Z,5.25
2023-04-27T16:43:50.937Z,6.20
2023-04-27T16:46:19.264Z,5.43
2023-04-27T16:48:47.743Z,5.47
2023-04-27T16:51:17.432Z,6.00
2023-04-27T16:53:45.972Z,6.13
2023-04-27T16:56:14.525Z,6.20
2023-04-27T16:58:42.634Z,5.20
2023-04-27T17:01:10.888Z,5.10
2023-04-27T17:03:39.135Z,5.30
2023-04-27T17:06:08.201Z,5.18
2023-04-27T17:08:38.126Z,7.22
2023-04-27T17:11:09.833Z,6.43
2023-04-27T17:13:38.151Z,5.78
2023-04-27T17:16:11.592Z,6.40
2023-04-27T17:18:39.953Z,6.28
2023-04-27T17:21:08.137Z,6.70
2023-04-27T17:23:37.748Z,6.55
2023-04-27T17:26:07.842Z,6.85
2023-04-27T17:28:36.424Z,5.78
2023-04-27T17:31:04.699Z,5.85
2023-04-27T17:33:33.004Z,6.90
2023-04-27T17:36:01.463Z,5.63
2023-04-27T17:38:29.677Z,6.55
2023-04-27T17:40:59.545Z,6.28
2023-04-27T17:43:27.834Z,6.97
2023-04-27T17:45:56.028Z,6.22
2023-04-27T17:48:24.396Z,6.85
2023-04-27T17:50:52.981Z,7.10
2023-04-27T17:53:21.216Z,7.35
2023-04-27T17:55:49.592Z,6.35
2023-04-27T17:58:19.249Z,7.53
2023-04-27T18:00:47.652Z,6.82
2023-04-27T18:03:16.200Z,7.05
2023-04-27T18:05:44.575Z,7.38
2023-04-27T18:08:12.782Z,7.20
2023-04-27T18:10:41.347Z,7.78
2023-04-27T18:13:09.562Z,7.78
2023-04-27T18:15:39.467Z,7.30
2023-04-27T18:18:07.742Z,7.30
2023-04-27T18:20:36.638Z,7.80
2023-04-27T18:23:04.787Z,7.22
2023-04-27T18:25:33.035Z,7.47
2023-04-27T18:28:01.738Z,8.23
2023-04-27T18:30:31.846Z,6.65
2023-04-27T18:33:01.433Z,7.40
2023-04-27T18:35:29.709Z,7.65
2023-04-27T18:37:57.835Z,9.80
2023-04-27T18:40:26.130Z,7.35
2023-04-27T18:42:54.696Z,6.60
2023-04-27T18:45:22.964Z,8.10
2023-04-27T18:47:51.773Z,8.35
2023-04-27T18:50:21.617Z,7.50
2023-04-27T18:52:50.114Z,7.63
2023-04-27T18:55:18.512Z,6.97
2023-04-27T18:57:46.882Z,8.00
2023-04-27T19:00:15.900Z,7.45
2023-04-27T19:02:44.188Z,7.75
2023-04-27T19:05:13.711Z,8.45
2023-04-27T19:07:43.553Z,8.30
2023-04-27T19:10:13.016Z,8.80
2023-04-27T19:12:41.450Z,8.20
2023-04-27T19:15:10.564Z,6.57
2023-04-27T19:17:39.165Z,7.10
2023-04-27T19:20:09.703Z,7.90
2023-04-27T19:22:38.002Z,6.82
2023-04-27T19:25:09.579Z,7.00
2023-04-27T19:27:37.813Z,6.93
2023-04-27T19:30:07.776Z,5.75
2023-04-27T19:32:36.306Z,7.13
2023-04-27T19:35:04.856Z,7.32
2023-04-27T19:37:33.154Z,5.97
2023-04-27T19:40:01.518Z,7.63
2023-04-27T19:42:31.656Z,6.78
2023-04-27T19:45:00.849Z,6.68
2023-04-27T19:47:29.055Z,7.00
2023-04-27T19:49:58.505Z,7.05
2023-04-27T19:52:27.213Z,6.90
2023-04-27T19:54:56.187Z,7.90
2023-04-27T19:57:24.544Z,7.07
2023-04-27T19:59:54.050Z,7.50
2023-04-27T20:02:22.823Z,7.95
2023-04-27T20:04:51.394Z,8.63
2023-04-27T20:07:19.978Z,6.85
2023-04-27T20:09:48.176Z,6.70
2023-04-27T20:12:40.116Z,6.82
2023-04-27T20:15:06.783Z,6.55
2023-04-27T20:17:35.624Z,6.28
2023-04-27T20:20:06.135Z,6.85
2023-04-27T20:22:34.399Z,6.30
2023-04-27T20:25:02.790Z,6.22
2023-04-27T20:27:31.291Z,5.97
2023-04-27T20:29:59.541Z,6.45
2023-04-27T20:32:29.223Z,5.30
2023-04-27T20:34:57.473Z,6.20
2023-04-27T20:37:25.945Z,5.95
2023-04-27T20:39:54.104Z,6.05
2023-04-27T20:42:22.642Z,6.05
2023-04-27T20:44:51.119Z,5.88
2023-04-27T20:47:19.323Z,6.07
2023-04-27T20:49:48.874Z,6.13
2023-04-27T20:52:17.070Z,5.50
2023-04-27T20:54:45.343Z,5.35
2023-04-27T20:57:14.498Z,5.65
2023-04-27T20:59:42.809Z,5.68
2023-04-27T21:02:11.073Z,5.53
2023-04-27T21:04:39.550Z,5.47
2023-04-27T21:07:09.375Z,5.97
2023-04-27T21:09:38.808Z,5.38
2023-04-27T21:12:07.341Z,5.70
2023-04-27T21:14:35.992Z,5.80
2023-04-27T21:17:04.416Z,5.20
2023-04-27T21:19:32.830Z,5.45
2023-04-27T21:22:01.422Z,5.35
2023-04-27T21:24:31.023Z,6.53
2023-04-27T21:26:59.269Z,6.40
2023-04-27T21:29:27.884Z,5.53
2023-04-27T21:31:56.243Z,5.40
2023-04-27T21:34:24.453Z,5.80
2023-04-27T21:36:53.342Z,5.25
2023-04-27T21:39:21.582Z,5.55
2023-04-27T21:41:51.282Z,5.75
2023-04-27T21:44:19.876Z,6.50
2023-04-27T21:46:48.196Z,6.38
2023-04-27T21:49:16.536Z,6.70
2023-04-27T21:51:44.782Z,6.00
2023-04-27T21:54:13.139Z,5.82
2023-04-27T21:56:41.719Z,5.35
2023-04-27T21:59:11.310Z,6.20
2023-04-27T22:01:39.952Z,5.90
2023-04-27T22:04:08.216Z,6.25
2023-04-27T22:06:36.602Z,5.40
2023-04-27T22:09:07.810Z,4.22
2023-04-27T22:11:36.417Z,4.50
2023-04-27T22:14:04.676Z,4.60
2023-04-27T22:16:34.427Z,4.80
2023-04-27T22:19:02.723Z,4.80
2023-04-27T22:21:31.349Z,5.10
2023-04-27T22:23:59.577Z,4.30
2023-04-27T22:26:27.837Z,5.20
2023-04-27T22:28:56.025Z,4.82
2023-04-27T22:31:24.436Z,3.90
2023-04-27T22:33:54.041Z,4.45
2023-04-27T22:36:22.332Z,4.13
2023-04-27T22:38:51.438Z,5.20
2023-04-27T22:41:21.083Z,4.20
2023-04-27T22:43:49.287Z,4.60
2023-04-27T22:46:17.531Z,4.28
2023-04-27T22:48:45.726Z,4.15
2023-04-27T22:51:15.311Z,4.55
2023-04-27T22:53:43.598Z,4.28
2023-04-27T22:56:11.799Z,4.80
2023-04-27T22:58:40.019Z,4.63
2023-04-27T23:01:08.513Z,5.20
2023-04-27T23:03:37.005Z,4.78
2023-04-27T23:06:07.205Z,4.82
2023-04-27T23:08:37.274Z,5.65
2023-04-27T23:11:05.488Z,5.30
2023-04-27T23:13:33.721Z,5.20
2023-04-27T23:16:01.948Z,5.10
2023-04-27T23:18:30.096Z,4.38
2023-04-27T23:20:58.305Z,3.90
2023-04-27T23:23:26.457Z,4.60
2023-04-27T23:25:56.099Z,4.40
2023-04-27T23:28:24.262Z,4.00
2023-04-27T23:30:54.589Z,5.35
2023-04-27T23:33:23.267Z,4.78
2023-04-27T23:35:51.464Z,4.35
2023-04-27T23:38:19.609Z,4.35
2023-04-27T23:40:47.795Z,4.40
2023-04-27T23:43:17.340Z,4.72
2023-04-27T23:45:50.707Z,5.13
2023-04-27T23:48:18.914Z,5.28
2023-04-27T23:50:47.349Z,4.50
2023-04-27T23:53:15.551Z,6.03
2023-04-27T23:55:43.921Z,4.40
2023-04-27T23:58:12.111Z,5.90
